createdAt,value
2018-09-26T00:00:09.427Z,3.25
2018-09-26T00:01:09.380Z,3.36
2018-09-26T00:02:09.357Z,3.27
2018-09-26T00:03:09.363Z,3.28
2018-09-26T00:04:09.460Z,3.40
2018-09-26T00:05:09.387Z,3.47
2018-09-26T00:06:09.374Z,3.47
2018-09-26T00:07:09.353Z,3.42
2018-09-26T00:08:09.324Z,3.49
2018-09-26T00:09:09.320Z,3.47
2018-09-26T00:10:09.375Z,3.30
2018-09-26T00:11:09.372Z,3.24
2018-09-26T00:12:09.303Z,3.40
2018-09-26T00:13:09.314Z,3.30
2018-09-26T00:14:09.278Z,3.33
2018-09-26T00:15:09.269Z,3.36
2018-09-26T00:16:09.327Z,3.39
2018-09-26T00:17:09.265Z,3.44
2018-09-26T00:18:10.940Z,3.43
2018-09-26T00:19:09.252Z,3.40
2018-09-26T00:20:09.377Z,3.34
2018-09-26T00:21:09.243Z,3.42
2018-09-26T00:22:09.257Z,3.47
2018-09-26T00:23:10.944Z,3.36
2018-09-26T00:24:09.272Z,3.30
2018-09-26T00:25:09.247Z,3.36
2018-09-26T00:26:12.026Z,3.47
2018-09-26T00:27:11.007Z,3.39
2018-09-26T00:28:09.197Z,3.42
2018-09-26T00:29:09.260Z,3.42
2018-09-26T00:30:09.172Z,3.39
2018-09-26T00:31:09.203Z,3.39
2018-09-26T00:32:09.155Z,3.33
2018-09-26T00:33:09.183Z,3.30
2018-09-26T00:34:09.162Z,3.31
2018-09-26T00:35:09.150Z,3.43
2018-09-26T00:36:09.375Z,3.39
2018-09-26T00:37:09.272Z,3.44
2018-09-26T00:38:09.245Z,3.46
2018-09-26T00:39:09.201Z,3.47
2018-09-26T00:40:09.130Z,3.47
2018-09-26T00:41:09.149Z,3.36
2018-09-26T00:42:09.105Z,3.44
2018-09-26T00:43:10.955Z,3.46
2018-09-26T00:44:12.001Z,3.44
2018-09-26T00:45:09.181Z,3.44
2018-09-26T00:46:10.964Z,3.44
2018-09-26T00:47:12.014Z,3.57
2018-09-26T00:48:09.198Z,3.54
2018-09-26T00:49:10.159Z,3.52
2018-09-26T00:50:09.105Z,3.44
2018-09-26T00:51:09.197Z,3.49
2018-09-26T00:52:09.096Z,3.43
2018-09-26T00:53:09.019Z,3.46
2018-09-26T00:54:11.995Z,3.43
2018-09-26T00:55:09.023Z,3.57
2018-09-26T00:56:09.023Z,3.54
2018-09-26T00:57:10.150Z,3.60
2018-09-26T00:58:20.977Z,3.50
2018-09-26T00:59:11.305Z,3.49
2018-09-26T01:00:09.941Z,3.44
2018-09-26T01:01:10.884Z,3.47
2018-09-26T01:02:11.022Z,3.53
2018-09-26T01:03:10.400Z,3.49
2018-09-26T01:04:10.897Z,3.46
2018-09-26T01:05:12.392Z,3.42
2018-09-26T01:06:10.904Z,3.33
2018-09-26T01:07:10.386Z,3.49
2018-09-26T01:08:09.948Z,3.54
2018-09-26T01:09:12.545Z,3.54
2018-09-26T01:10:09.928Z,3.57
2018-09-26T01:11:11.472Z,3.60
2018-09-26T01:12:10.333Z,3.58
2018-09-26T01:13:11.469Z,3.60
2018-09-26T01:14:10.876Z,3.44
2018-09-26T01:15:09.055Z,3.57
2018-09-26T01:16:11.590Z,3.60
2018-09-26T01:17:11.559Z,3.57
2018-09-26T01:18:18.126Z,3.62
2018-09-26T01:35:56.223Z,3.94
2018-09-26T01:36:54.338Z,4.01
2018-09-26T01:41:25.360Z,4.14
2018-09-26T01:43:28.153Z,4.25
2018-09-26T01:45:46.769Z,4.29
2018-09-26T01:46:47.243Z,4.28
2018-09-26T01:47:54.993Z,4.33
2018-09-26T01:51:15.600Z,4.24
2018-09-26T01:53:41.657Z,4.16
2018-09-26T01:56:16.577Z,4.18
2018-09-26T01:57:38.185Z,4.01
2018-09-26T01:58:13.048Z,4.18
2018-09-26T02:02:14.175Z,4.70
2018-09-26T02:04:51.981Z,5.25
2018-09-26T02:09:16.916Z,5.82
2018-09-26T02:16:00.732Z,5.93
2018-09-26T02:18:29.696Z,6.03
2018-09-26T02:21:25.849Z,6.13
2018-09-26T02:25:25.302Z,6.44
2018-09-26T02:26:31.772Z,6.46
2018-09-26T02:28:22.794Z,6.48
2018-09-26T02:29:17.971Z,6.62
2018-09-26T02:30:18.804Z,6.62
2018-09-26T02:31:19.367Z,6.68
2018-09-26T02:33:43.176Z,6.58
2018-09-26T02:34:42.200Z,6.59
2018-09-26T02:35:42.562Z,6.66
2018-09-26T02:36:42.111Z,6.61
2018-09-26T02:37:40.591Z,6.62
2018-09-26T02:38:39.883Z,6.58
2018-09-26T02:39:39.354Z,6.59
2018-09-26T02:40:39.340Z,6.59
2018-09-26T02:41:39.343Z,6.54
2018-09-26T02:42:38.814Z,6.54
2018-09-26T02:43:39.338Z,6.61
2018-09-26T02:44:41.553Z,6.63
2018-09-26T02:45:39.812Z,6.65
2018-09-26T02:46:39.762Z,6.65
2018-09-26T02:49:04.833Z,6.69
2018-09-26T02:50:05.276Z,6.68
2018-09-26T02:51:05.310Z,6.79
2018-09-26T02:52:06.409Z,6.79
2018-09-26T02:53:05.280Z,6.76
2018-09-26T02:54:05.881Z,6.81
2018-09-26T02:55:05.795Z,6.80
2018-09-26T02:56:05.900Z,6.76
2018-09-26T02:57:05.284Z,6.77
2018-09-26T02:58:05.294Z,6.76
2018-09-26T02:59:05.398Z,6.73
2018-09-26T03:00:05.405Z,6.69
2018-09-26T03:01:04.763Z,6.71
2018-09-26T03:02:05.881Z,6.63
2018-09-26T03:03:05.356Z,6.50
2018-09-26T03:04:05.745Z,6.47
2018-09-26T03:05:05.372Z,6.33
2018-09-26T03:06:05.223Z,6.30
2018-09-26T03:07:05.167Z,6.33
2018-09-26T03:08:05.363Z,6.21
2018-09-26T03:09:05.735Z,6.25
2018-09-26T03:10:05.389Z,6.09
2018-09-26T03:11:06.370Z,5.92
2018-09-26T03:12:05.372Z,5.88
2018-09-26T03:13:05.393Z,5.78
2018-09-26T03:14:05.389Z,5.74
2018-09-26T03:15:05.657Z,5.53
2018-09-26T03:16:05.163Z,5.57
2018-09-26T03:17:05.359Z,5.41
2018-09-26T03:18:04.414Z,5.32
2018-09-26T03:19:04.182Z,5.30
2018-09-26T03:20:04.201Z,5.28
2018-09-26T03:21:04.179Z,5.30
2018-09-26T03:22:06.109Z,5.28
2018-09-26T03:23:04.226Z,5.17
2018-09-26T03:24:04.232Z,5.12
2018-09-26T03:25:04.164Z,5.14
2018-09-26T03:26:04.323Z,5.17
2018-09-26T03:28:30.344Z,5.14
2018-09-26T03:29:28.744Z,5.27
2018-09-26T03:31:27.547Z,5.27
2018-09-26T03:32:23.850Z,5.27
2018-09-26T03:33:26.200Z,5.23
2018-09-26T03:36:57.542Z,5.35
2018-09-26T03:37:55.836Z,5.25
2018-09-26T03:38:56.896Z,5.35
2018-09-26T03:45:03.433Z,5.35
2018-09-26T03:45:44.862Z,5.35
2018-09-26T03:46:45.817Z,5.31
2018-09-26T03:47:44.779Z,5.31
2018-09-26T03:48:46.323Z,5.32
2018-09-26T03:49:44.805Z,5.27
2018-09-26T03:50:44.789Z,5.28
2018-09-26T03:51:45.814Z,5.22
2018-09-26T03:52:44.764Z,5.17
2018-09-26T03:53:45.224Z,5.12
2018-09-26T03:54:45.870Z,5.10
2018-09-26T03:55:45.261Z,5.05
2018-09-26T03:56:45.210Z,5.07
2018-09-26T03:57:44.699Z,5.07
2018-09-26T03:58:45.322Z,4.91
2018-09-26T03:59:48.984Z,5.05
2018-09-26T04:00:44.661Z,4.96
2018-09-26T04:03:30.568Z,4.95
2018-09-26T04:04:29.136Z,4.91
2018-09-26T04:06:37.403Z,4.96
2018-09-26T04:07:22.885Z,4.79
2018-09-26T04:09:25.710Z,4.69
2018-09-26T04:10:16.928Z,4.84
2018-09-26T04:11:18.776Z,4.79
2018-09-26T04:12:20.301Z,4.83
2018-09-26T04:13:18.744Z,4.79
2018-09-26T04:14:30.813Z,4.79
2018-09-26T04:17:11.278Z,4.72
2018-09-26T04:20:02.688Z,4.69
2018-09-26T04:20:39.219Z,4.65
2018-09-26T04:21:40.692Z,4.65
2018-09-26T04:22:41.123Z,4.65
2018-09-26T04:23:46.778Z,4.69
2018-09-26T04:26:19.648Z,4.52
2018-09-26T04:27:30.259Z,4.44
2018-09-26T04:47:33.857Z,3.92
2018-09-26T04:48:38.972Z,3.90
2018-09-26T04:49:33.039Z,3.94
2018-09-26T04:50:32.538Z,3.96
2018-09-26T04:51:32.491Z,3.92
2018-09-26T04:54:27.053Z,3.98
2018-09-26T04:57:39.518Z,3.94
2018-09-26T04:58:41.654Z,3.92
2018-09-26T05:00:43.686Z,4.00
2018-09-26T05:01:29.302Z,3.92
2018-09-26T05:03:34.658Z,3.94
2018-09-26T05:04:25.793Z,3.96
2018-09-26T05:07:13.112Z,3.83
2018-09-26T05:08:13.412Z,3.83
2018-09-26T05:10:06.604Z,3.82
2018-09-26T05:11:06.546Z,3.82
2018-09-26T05:13:00.034Z,3.71
2018-09-26T05:14:00.248Z,3.78
2018-09-26T05:14:59.945Z,3.68
2018-09-26T05:16:07.167Z,3.71
2018-09-26T05:17:55.009Z,3.65
2018-09-26T05:18:53.927Z,3.61
2018-09-26T05:20:46.679Z,3.72
2018-09-26T05:21:46.663Z,3.71
2018-09-26T05:22:49.736Z,3.61
2018-09-26T05:23:55.839Z,3.71
2018-09-26T05:25:40.476Z,3.71
2018-09-26T05:26:41.312Z,3.78
2018-09-26T05:27:40.288Z,3.82
2018-09-26T05:28:42.114Z,3.82
2018-09-26T05:29:40.420Z,3.78
2018-09-26T05:30:40.231Z,3.88
2018-09-26T05:31:40.212Z,3.88
2018-09-26T05:32:40.261Z,3.92
2018-09-26T05:33:42.083Z,3.90
2018-09-26T05:34:42.030Z,3.97
2018-09-26T05:35:40.194Z,3.90
2018-09-26T05:36:40.178Z,4.00
2018-09-26T05:37:40.167Z,4.03
2018-09-26T05:38:40.160Z,4.07
2018-09-26T05:39:40.158Z,4.14
2018-09-26T05:40:40.145Z,4.07
2018-09-26T05:41:40.191Z,4.21
2018-09-26T05:42:40.172Z,4.36
2018-09-26T05:43:40.125Z,4.28
2018-09-26T05:44:40.119Z,4.33
2018-09-26T05:45:40.114Z,4.34
2018-09-26T05:46:40.110Z,4.29
2018-09-26T05:47:40.102Z,4.36
2018-09-26T05:48:40.107Z,4.40
2018-09-26T05:49:40.090Z,4.46
2018-09-26T05:50:40.164Z,4.51
2018-09-26T05:51:40.077Z,4.55
2018-09-26T05:52:40.071Z,4.54
2018-09-26T05:53:40.065Z,4.59
2018-09-26T05:54:40.058Z,4.70
2018-09-26T05:55:40.052Z,4.72
2018-09-26T05:56:40.047Z,4.83
2018-09-26T05:57:40.054Z,4.79
2018-09-26T05:58:40.040Z,4.83
2018-09-26T05:59:40.084Z,4.92
2018-09-26T06:00:40.023Z,5.07
2018-09-26T06:01:40.016Z,5.02
2018-09-26T06:02:40.016Z,5.13
2018-09-26T06:03:40.007Z,5.37
2018-09-26T06:04:39.997Z,5.64
2018-09-26T06:05:39.993Z,5.82
2018-09-26T06:06:39.986Z,5.71
2018-09-26T06:07:39.980Z,5.83
2018-09-26T06:08:39.975Z,5.92
2018-09-26T06:09:39.970Z,6.13
2018-09-26T06:10:39.967Z,6.41
2018-09-26T06:11:39.961Z,6.47
2018-09-26T06:12:39.952Z,6.81
2018-09-26T06:13:39.950Z,6.94
2018-09-26T06:14:39.941Z,7.04
2018-09-26T06:15:39.957Z,7.13
2018-09-26T06:16:39.933Z,7.38
2018-09-26T06:17:39.929Z,7.37
2018-09-26T06:18:39.919Z,7.42
2018-09-26T06:19:39.914Z,7.59
2018-09-26T06:20:39.913Z,7.77
2018-09-26T06:21:39.905Z,7.97
2018-09-26T06:22:39.920Z,8.15
2018-09-26T06:23:39.906Z,8.22
2018-09-26T06:24:39.903Z,8.37
2018-09-26T06:25:39.887Z,8.45
2018-09-26T06:26:39.881Z,8.54
2018-09-26T06:27:39.880Z,8.54
2018-09-26T06:28:39.874Z,8.65
2018-09-26T06:29:39.864Z,8.78
2018-09-26T06:30:39.861Z,8.90
2018-09-26T06:31:39.855Z,9.12
2018-09-26T06:32:39.862Z,9.39
2018-09-26T06:33:39.850Z,9.40
2018-09-26T06:34:39.843Z,9.50
2018-09-26T06:35:39.839Z,9.96
2018-09-26T06:36:39.840Z,10.03
2018-09-26T06:37:39.832Z,10.43
2018-09-26T06:38:39.831Z,10.89
2018-09-26T06:39:39.823Z,11.31
2018-09-26T06:40:39.822Z,11.74
2018-09-26T06:41:39.817Z,12.64
2018-09-26T06:42:39.833Z,12.97
2018-09-26T06:43:39.836Z,13.11
2018-09-26T06:44:39.807Z,13.70
2018-09-26T06:45:39.808Z,13.96
2018-09-26T06:46:39.805Z,13.91
2018-09-26T06:47:39.803Z,13.55
2018-09-26T06:48:39.800Z,13.84
2018-09-26T06:49:47.040Z,14.04
2018-09-26T06:51:32.714Z,13.91
2018-09-26T06:52:40.237Z,13.56
2018-09-26T06:54:25.598Z,14.17
2018-09-26T06:55:25.539Z,14.12
2018-09-26T06:57:18.651Z,14.25
2018-09-26T06:58:18.627Z,14.01
2018-09-26T07:00:12.044Z,13.87
2018-09-26T07:01:12.021Z,13.74
2018-09-26T07:03:05.410Z,13.98
2018-09-26T07:04:05.410Z,14.24
2018-09-26T07:05:58.291Z,15.01
2018-09-26T07:06:58.259Z,14.88
2018-09-26T07:08:51.212Z,15.45
2018-09-26T07:09:51.182Z,15.66
2018-09-26T07:11:44.041Z,15.38
2018-09-26T07:12:44.035Z,15.17
2018-09-26T07:13:44.022Z,15.20
2018-09-26T07:14:44.029Z,15.74
2018-09-26T07:15:44.031Z,15.27
2018-09-26T07:16:44.033Z,15.56
2018-09-26T07:17:44.082Z,15.76
2018-09-26T07:18:44.039Z,15.54
2018-09-26T07:19:44.041Z,15.59
2018-09-26T07:20:44.045Z,15.56
2018-09-26T07:21:44.045Z,15.84
2018-09-26T07:22:44.051Z,15.20
2018-09-26T07:23:44.061Z,14.88
2018-09-26T07:24:44.068Z,14.99
2018-09-26T07:25:44.062Z,15.24
2018-09-26T07:26:44.069Z,15.03
2018-09-26T07:27:44.073Z,15.06
2018-09-26T07:28:44.074Z,15.35
2018-09-26T07:29:44.087Z,15.81
2018-09-26T07:30:44.085Z,16.33
2018-09-26T07:31:44.092Z,15.59
2018-09-26T07:32:44.091Z,15.23
2018-09-26T07:33:44.096Z,15.19
2018-09-26T07:34:44.100Z,14.78
2018-09-26T07:35:44.103Z,15.31
2018-09-26T07:36:44.108Z,15.15
2018-09-26T07:37:44.118Z,15.68
2018-09-26T07:38:44.125Z,15.96
2018-09-26T07:39:44.122Z,15.86
2018-09-26T07:40:44.125Z,15.94
2018-09-26T07:41:44.130Z,16.16
2018-09-26T07:42:44.137Z,15.51
2018-09-26T07:43:44.152Z,15.63
2018-09-26T07:44:44.146Z,16.00
2018-09-26T07:45:44.172Z,16.22
2018-09-26T07:46:44.155Z,15.86
2018-09-26T07:47:44.159Z,16.15
2018-09-26T07:48:44.162Z,15.94
2018-09-26T07:49:44.166Z,15.97
2018-09-26T07:50:44.170Z,15.70
2018-09-26T07:51:44.175Z,15.63
2018-09-26T07:52:44.183Z,16.34
2018-09-26T07:53:44.183Z,16.78
2018-09-26T07:54:44.209Z,17.03
2018-09-26T07:55:44.194Z,17.36
2018-09-26T07:56:44.198Z,16.95
2018-09-26T07:57:44.202Z,16.35
2018-09-26T07:58:44.211Z,16.62
2018-09-26T07:59:44.219Z,16.85
2018-09-26T08:00:44.219Z,17.26
2018-09-26T08:01:44.247Z,17.04
2018-09-26T08:02:44.231Z,16.86
2018-09-26T08:03:44.230Z,16.50
2018-09-26T08:04:44.239Z,16.37
2018-09-26T08:05:44.244Z,16.74
2018-09-26T08:06:44.251Z,16.73
2018-09-26T08:07:44.253Z,17.11
2018-09-26T08:08:44.260Z,17.04
2018-09-26T08:09:44.267Z,16.88
2018-09-26T08:10:44.283Z,17.43
2018-09-26T08:11:44.332Z,17.64
2018-09-26T08:12:44.281Z,16.95
2018-09-26T08:13:44.290Z,16.83
2018-09-26T08:14:44.298Z,16.77
2018-09-26T08:15:44.298Z,16.78
2018-09-26T08:16:44.325Z,16.58
2018-09-26T08:17:44.320Z,16.48
2018-09-26T08:18:44.456Z,16.60
2018-09-26T08:19:44.323Z,16.96
2018-09-26T08:20:44.328Z,17.14
2018-09-26T08:21:44.334Z,17.23
2018-09-26T08:22:44.763Z,16.85
2018-09-26T08:23:44.379Z,17.55
2018-09-26T08:24:44.362Z,18.22
2018-09-26T08:25:44.357Z,18.31
2018-09-26T08:26:44.365Z,18.19
2018-09-26T08:27:44.401Z,18.70
2018-09-26T08:28:44.384Z,19.13
2018-09-26T08:29:44.411Z,18.39
2018-09-26T08:30:44.436Z,18.70
2018-09-26T08:31:44.420Z,18.73
2018-09-26T08:32:44.432Z,19.06
2018-09-26T08:33:44.408Z,18.62
2018-09-26T08:34:44.419Z,18.47
2018-09-26T08:35:44.422Z,17.88
2018-09-26T08:36:44.431Z,18.28
2018-09-26T08:37:44.440Z,18.62
2018-09-26T08:38:44.447Z,18.40
2018-09-26T08:39:44.449Z,18.46
2018-09-26T08:40:44.460Z,17.99
2018-09-26T08:41:44.466Z,17.91
2018-09-26T08:42:44.474Z,17.89
2018-09-26T08:43:44.727Z,17.67
2018-09-26T08:44:44.489Z,17.54
2018-09-26T08:45:44.497Z,17.23
2018-09-26T08:46:44.504Z,17.20
2018-09-26T08:47:44.516Z,17.00
2018-09-26T08:48:44.519Z,17.07
2018-09-26T08:49:44.532Z,17.62
2018-09-26T08:50:44.536Z,17.11
2018-09-26T08:51:44.543Z,16.96
2018-09-26T08:52:44.547Z,17.57
2018-09-26T08:53:44.583Z,17.88
2018-09-26T08:54:44.561Z,17.70
2018-09-26T08:55:44.572Z,17.88
2018-09-26T08:56:44.577Z,18.28
2018-09-26T08:57:44.582Z,18.37
2018-09-26T08:58:44.592Z,18.28
2018-09-26T08:59:44.621Z,18.07
2018-09-26T09:00:44.608Z,17.64
2018-09-26T09:01:44.629Z,16.77
2018-09-26T09:02:44.630Z,16.83
2018-09-26T09:03:44.646Z,16.74
2018-09-26T09:04:44.636Z,16.50
2018-09-26T09:05:44.665Z,16.22
2018-09-26T09:06:44.680Z,16.16
2018-09-26T09:07:44.669Z,16.11
2018-09-26T09:08:44.723Z,15.85
2018-09-26T09:09:44.689Z,15.92
2018-09-26T09:10:44.691Z,15.82
2018-09-26T09:11:44.719Z,16.16
2018-09-26T09:12:44.701Z,16.16
2018-09-26T09:13:44.743Z,16.31
2018-09-26T09:14:44.897Z,16.26
2018-09-26T09:15:44.719Z,16.45
2018-09-26T09:16:44.741Z,16.15
2018-09-26T09:17:44.779Z,16.00
2018-09-26T09:18:44.741Z,16.09
2018-09-26T09:19:44.779Z,16.11
2018-09-26T09:20:44.782Z,15.99
2018-09-26T09:21:44.763Z,16.00
2018-09-26T09:22:44.769Z,15.70
2018-09-26T09:23:44.812Z,15.57
2018-09-26T09:24:44.808Z,15.41
2018-09-26T09:25:44.790Z,15.52
2018-09-26T09:26:44.798Z,14.86
2018-09-26T09:27:44.907Z,14.64
2018-09-26T09:28:44.839Z,14.80
2018-09-26T09:29:44.817Z,14.98
2018-09-26T09:30:44.822Z,15.08
2018-09-26T09:31:44.832Z,15.24
2018-09-26T09:32:44.834Z,15.27
2018-09-26T09:33:44.839Z,15.20
2018-09-26T09:34:44.873Z,15.41
2018-09-26T09:35:44.857Z,15.54
2018-09-26T09:36:44.872Z,15.75
2018-09-26T09:37:44.867Z,15.94
2018-09-26T09:38:44.872Z,16.00
2018-09-26T09:39:44.881Z,15.97
2018-09-26T09:40:44.886Z,15.78
2018-09-26T09:41:44.889Z,15.70
2018-09-26T09:42:44.895Z,15.56
2018-09-26T09:43:44.901Z,15.39
2018-09-26T09:44:44.907Z,15.43
2018-09-26T09:45:44.920Z,15.36
2018-09-26T09:46:44.917Z,15.24
2018-09-26T09:47:44.924Z,15.24
2018-09-26T09:48:44.937Z,15.08
2018-09-26T09:49:44.934Z,14.86
2018-09-26T09:50:44.940Z,14.86
2018-09-26T09:51:45.010Z,14.74
2018-09-26T09:52:44.975Z,14.80
2018-09-26T09:53:44.957Z,14.93
2018-09-26T09:54:44.962Z,14.83
2018-09-26T09:55:44.965Z,14.78
2018-09-26T09:56:44.973Z,14.72
2018-09-26T09:57:44.992Z,14.61
2018-09-26T09:58:44.982Z,14.74
2018-09-26T09:59:45.001Z,14.84
2018-09-26T10:00:44.990Z,14.99
2018-09-26T10:01:44.998Z,15.08
2018-09-26T10:02:45.086Z,15.20
2018-09-26T10:03:45.023Z,15.03
2018-09-26T10:04:45.009Z,15.01
2018-09-26T10:05:45.026Z,15.09
2018-09-26T10:06:45.013Z,15.19
2018-09-26T10:07:45.018Z,15.17
2018-09-26T10:08:45.070Z,15.05
2018-09-26T10:09:45.025Z,15.15
2018-09-26T10:10:45.031Z,15.30
2018-09-26T10:11:45.036Z,15.56
2018-09-26T10:12:45.037Z,15.60
2018-09-26T10:13:45.044Z,15.70
2018-09-26T10:14:45.042Z,15.70
2018-09-26T10:15:45.046Z,16.03
2018-09-26T10:16:45.050Z,16.14
2018-09-26T10:17:45.057Z,16.49
2018-09-26T10:18:45.058Z,16.31
2018-09-26T10:19:45.060Z,16.37
2018-09-26T10:20:45.066Z,16.45
2018-09-26T10:21:45.068Z,16.56
2018-09-26T10:22:45.075Z,16.78
2018-09-26T10:23:45.075Z,16.48
2018-09-26T10:24:45.082Z,16.60
2018-09-26T10:25:45.081Z,16.86
2018-09-26T10:26:45.086Z,17.08
2018-09-26T10:27:45.087Z,17.36
2018-09-26T10:28:45.088Z,17.57
2018-09-26T10:29:45.100Z,17.73
2018-09-26T10:30:45.100Z,17.76
2018-09-26T10:31:45.110Z,17.89
2018-09-26T10:32:45.105Z,18.22
2018-09-26T10:33:45.113Z,18.27
2018-09-26T10:34:45.152Z,18.36
2018-09-26T10:35:45.117Z,18.39
2018-09-26T10:36:45.119Z,18.65
2018-09-26T10:37:45.124Z,18.70
2018-09-26T10:38:45.127Z,18.39
2018-09-26T10:39:45.132Z,18.37
2018-09-26T10:40:45.167Z,18.29
2018-09-26T10:41:45.161Z,17.95
2018-09-26T10:42:45.145Z,18.19
2018-09-26T10:43:45.144Z,18.39
2018-09-26T10:44:45.149Z,18.09
2018-09-26T10:45:45.162Z,18.31
2018-09-26T10:46:45.265Z,18.46
2018-09-26T10:47:45.169Z,18.49
2018-09-26T10:48:45.167Z,18.36
2018-09-26T10:49:45.169Z,18.28
2018-09-26T10:50:45.175Z,18.10
2018-09-26T10:51:45.177Z,17.87
2018-09-26T10:52:45.205Z,17.97
2018-09-26T10:53:45.183Z,17.92
2018-09-26T10:54:45.191Z,17.81
2018-09-26T10:55:45.225Z,17.92
2018-09-26T10:56:45.281Z,18.12
2018-09-26T10:57:46.082Z,18.13
2018-09-26T10:58:45.206Z,18.24
2018-09-26T10:59:45.216Z,18.27
2018-09-26T11:00:45.213Z,18.33
2018-09-26T11:01:45.223Z,18.47
2018-09-26T11:02:45.228Z,18.44
2018-09-26T11:03:45.427Z,18.49
2018-09-26T11:04:45.230Z,18.29
2018-09-26T11:05:45.247Z,18.31
2018-09-26T11:06:45.236Z,18.19
2018-09-26T11:07:45.241Z,18.24
2018-09-26T11:08:45.246Z,18.39
2018-09-26T11:09:45.249Z,18.50
2018-09-26T11:10:45.253Z,18.55
2018-09-26T11:11:45.257Z,18.39
2018-09-26T11:12:46.677Z,18.44
2018-09-26T11:13:45.281Z,18.57
2018-09-26T11:14:45.268Z,18.77
2018-09-26T11:15:45.287Z,18.87
2018-09-26T11:16:45.277Z,18.64
2018-09-26T11:17:45.281Z,18.77
2018-09-26T11:18:45.289Z,18.27
2018-09-26T11:19:45.301Z,18.44
2018-09-26T11:20:45.316Z,18.50
2018-09-26T11:21:45.297Z,18.61
2018-09-26T11:22:45.301Z,18.67
2018-09-26T11:23:45.303Z,18.77
2018-09-26T11:24:52.869Z,18.74
2018-09-26T11:26:38.733Z,18.58
2018-09-26T11:27:38.234Z,18.49
2018-09-26T11:29:31.364Z,18.34
2018-09-26T11:30:31.083Z,18.33
2018-09-26T11:32:24.371Z,18.42
2018-09-26T11:33:24.184Z,18.43
2018-09-26T11:35:17.264Z,18.70
2018-09-26T11:36:16.897Z,18.57
2018-09-26T11:38:10.687Z,18.33
2018-09-26T11:39:10.431Z,18.19
2018-09-26T11:41:04.087Z,17.70
2018-09-26T11:42:03.953Z,17.55
2018-09-26T11:43:57.040Z,17.59
2018-09-26T11:44:56.645Z,17.43
2018-09-26T11:46:49.803Z,17.59
2018-09-26T11:47:49.596Z,17.63
2018-09-26T11:49:42.749Z,17.71
2018-09-26T11:50:42.716Z,17.59
2018-09-26T11:52:35.653Z,17.35
2018-09-26T11:53:35.476Z,17.17
2018-09-26T11:55:28.539Z,17.04
2018-09-26T11:56:28.624Z,17.10
2018-09-26T11:58:21.646Z,17.23
2018-09-26T11:59:21.374Z,17.13
2018-09-26T12:01:14.965Z,17.00
2018-09-26T12:02:14.943Z,16.81
2018-09-26T12:04:08.342Z,17.10
2018-09-26T12:05:07.791Z,17.22
2018-09-26T12:07:01.293Z,17.07
2018-09-26T12:08:00.655Z,17.10
2018-09-26T12:09:54.123Z,16.99
2018-09-26T12:10:54.574Z,16.98
2018-09-26T12:12:48.065Z,16.81
2018-09-26T12:13:47.399Z,16.71
2018-09-26T12:15:39.332Z,16.73
2018-09-26T12:16:39.802Z,16.71
2018-09-26T12:18:33.038Z,16.73
2018-09-26T12:19:33.035Z,16.70
2018-09-26T12:21:30.537Z,16.85
2018-09-26T12:22:25.644Z,16.99
2018-09-26T12:23:25.534Z,17.14
2018-09-26T12:24:26.090Z,17.25
2018-09-26T12:25:25.846Z,17.20
2018-09-26T12:26:25.468Z,17.22
2018-09-26T12:27:25.476Z,17.25
2018-09-26T12:28:25.555Z,17.28
2018-09-26T12:29:25.477Z,17.33
2018-09-26T12:30:25.513Z,17.23
2018-09-26T12:31:25.483Z,17.26
2018-09-26T12:32:25.481Z,17.25
2018-09-26T12:33:25.488Z,17.14
2018-09-26T12:34:25.551Z,17.08
2018-09-26T12:35:25.492Z,16.93
2018-09-26T12:36:25.559Z,16.98
2018-09-26T12:37:25.525Z,16.96
2018-09-26T12:38:25.502Z,17.10
2018-09-26T12:39:25.502Z,17.20
2018-09-26T12:40:25.601Z,17.32
2018-09-26T12:41:25.583Z,17.28
2018-09-26T12:42:25.641Z,17.40
2018-09-26T12:43:25.514Z,17.35
2018-09-26T12:44:25.514Z,17.26
2018-09-26T12:45:25.518Z,17.26
2018-09-26T12:46:25.613Z,17.25
2018-09-26T12:47:25.692Z,17.08
2018-09-26T12:48:25.571Z,17.07
2018-09-26T12:49:25.534Z,17.00
2018-09-26T12:50:25.534Z,16.95
2018-09-26T12:51:25.541Z,16.95
2018-09-26T12:52:25.590Z,16.98
2018-09-26T12:53:25.563Z,16.95
2018-09-26T12:54:25.543Z,17.03
2018-09-26T12:55:25.548Z,16.98
2018-09-26T12:56:25.549Z,16.98
2018-09-26T12:57:25.560Z,16.92
2018-09-26T12:58:25.643Z,16.96
2018-09-26T12:59:25.555Z,16.99
2018-09-26T13:00:25.643Z,16.98
2018-09-26T13:01:25.574Z,16.98
2018-09-26T13:02:25.668Z,17.03
2018-09-26T13:03:25.628Z,17.03
2018-09-26T13:04:25.708Z,17.07
2018-09-26T13:05:25.578Z,17.14
2018-09-26T13:06:25.591Z,17.26
2018-09-26T13:07:25.576Z,17.20
2018-09-26T13:08:25.614Z,17.40
2018-09-26T13:09:25.580Z,17.46
2018-09-26T13:10:25.684Z,17.57
2018-09-26T13:11:25.585Z,17.51
2018-09-26T13:12:25.682Z,17.54
2018-09-26T13:13:25.589Z,17.53
2018-09-26T13:14:25.656Z,17.51
2018-09-26T13:15:25.614Z,17.53
2018-09-26T13:16:26.532Z,17.57
2018-09-26T13:17:25.602Z,17.55
2018-09-26T13:18:25.740Z,17.55
2018-09-26T13:19:25.607Z,17.33
2018-09-26T13:20:25.655Z,17.10
2018-09-26T13:21:25.616Z,16.89
2018-09-26T13:22:25.774Z,16.81
2018-09-26T13:23:25.630Z,16.81
2018-09-26T13:24:25.653Z,16.86
2018-09-26T13:25:25.773Z,16.96
2018-09-26T13:26:25.635Z,17.00
2018-09-26T13:27:25.657Z,17.10
2018-09-26T13:28:25.740Z,17.20
2018-09-26T13:29:25.634Z,17.30
2018-09-26T13:30:25.702Z,17.40
2018-09-26T13:31:25.639Z,17.28
2018-09-26T13:32:25.731Z,17.11
2018-09-26T13:33:25.665Z,17.08
2018-09-26T13:34:25.719Z,17.15
2018-09-26T13:35:25.658Z,17.14
2018-09-26T13:36:25.710Z,17.22
2018-09-26T13:37:25.787Z,17.20
2018-09-26T13:38:25.757Z,17.32
2018-09-26T13:39:25.696Z,17.47
2018-09-26T13:40:25.743Z,17.59
2018-09-26T13:41:25.662Z,17.55
2018-09-26T13:42:25.688Z,17.51
2018-09-26T13:43:25.669Z,17.55
2018-09-26T13:44:25.704Z,17.57
2018-09-26T13:45:25.880Z,17.54
2018-09-26T13:46:25.759Z,17.44
2018-09-26T13:47:25.681Z,17.38
2018-09-26T13:48:25.759Z,17.43
2018-09-26T13:49:25.683Z,17.36
2018-09-26T13:50:25.775Z,17.07
2018-09-26T13:51:25.690Z,17.07
2018-09-26T13:52:25.718Z,17.07
2018-09-26T13:53:25.856Z,16.99
2018-09-26T13:54:25.798Z,16.96
2018-09-26T13:55:25.702Z,16.98
2018-09-26T13:56:25.739Z,17.15
2018-09-26T13:57:25.708Z,17.20
2018-09-26T13:58:25.798Z,17.29
2018-09-26T13:59:25.708Z,17.38
2018-09-26T14:00:25.789Z,17.43
2018-09-26T14:01:25.778Z,17.46
2018-09-26T14:02:25.900Z,17.44
2018-09-26T14:03:25.720Z,17.57
2018-09-26T14:04:25.784Z,17.55
2018-09-26T14:06:18.790Z,17.57
2018-09-26T14:07:19.026Z,17.73
2018-09-26T14:09:12.745Z,17.73
2018-09-26T14:10:12.560Z,17.69
2018-09-26T14:12:05.213Z,17.73
2018-09-26T14:13:05.254Z,17.67
2018-09-26T14:14:58.136Z,17.57
2018-09-26T14:15:58.091Z,17.48
2018-09-26T14:17:50.950Z,17.38
2018-09-26T14:18:50.895Z,17.28
2018-09-26T14:20:43.872Z,17.13
2018-09-26T14:21:43.944Z,17.13
2018-09-26T14:23:36.823Z,17.23
2018-09-26T14:24:36.680Z,17.30
2018-09-26T14:26:33.045Z,17.44
2018-09-26T14:27:32.991Z,17.29
2018-09-26T14:29:25.927Z,17.26
2018-09-26T14:30:26.032Z,17.29
2018-09-26T14:31:25.930Z,17.20
2018-09-26T14:32:25.948Z,17.40
2018-09-26T14:33:26.553Z,17.44
2018-09-26T14:34:25.851Z,17.35
2018-09-26T14:35:25.917Z,17.36
2018-09-26T14:36:25.863Z,17.38
2018-09-26T14:37:25.860Z,17.50
2018-09-26T14:38:25.947Z,17.36
2018-09-26T14:39:25.957Z,17.47
2018-09-26T14:40:25.872Z,17.48
2018-09-26T14:41:25.946Z,17.32
2018-09-26T14:42:25.873Z,17.38
2018-09-26T14:43:25.882Z,17.46
2018-09-26T14:44:25.974Z,17.41
2018-09-26T14:45:26.010Z,17.36
2018-09-26T14:46:25.879Z,17.41
2018-09-26T14:47:25.945Z,17.47
2018-09-26T14:48:25.886Z,17.40
2018-09-26T14:49:25.988Z,17.46
2018-09-26T14:50:25.992Z,17.33
2018-09-26T14:51:25.891Z,17.36
2018-09-26T14:52:25.893Z,17.35
2018-09-26T14:53:25.970Z,17.46
2018-09-26T14:54:25.914Z,17.40
2018-09-26T14:55:33.107Z,17.44
2018-09-26T14:57:30.504Z,17.08
2018-09-26T14:58:30.574Z,17.07
2018-09-26T15:00:23.616Z,17.07
2018-09-26T15:01:23.373Z,17.22
2018-09-26T15:03:16.894Z,17.22
2018-09-26T15:04:16.901Z,17.33
2018-09-26T15:06:11.962Z,17.43
2018-09-26T15:07:12.143Z,17.47
2018-09-26T15:09:04.067Z,17.41
2018-09-26T15:10:03.996Z,17.23
2018-09-26T15:11:56.934Z,17.22
2018-09-26T15:12:56.868Z,17.26
2018-09-26T15:14:50.071Z,17.25
2018-09-26T15:15:49.988Z,17.14
2018-09-26T15:17:42.877Z,17.20
2018-09-26T15:18:50.351Z,17.22
2018-09-26T15:20:35.948Z,17.03
2018-09-26T15:21:35.745Z,16.98
2018-09-26T15:23:28.814Z,16.77
2018-09-26T15:24:28.639Z,16.68
2018-09-26T15:26:21.601Z,16.63